Terminal Aerodrome Forecast
Issued by NWS

Home | Current Version | Previous Version | Text Only | Print | Product List | Glossary Off
Versions: 1 2 3 4 5 6 7 8 9 10 11 12 13 14 15

000
FTUS43 KMPX 231556 AAA
TAFRNH
TAF AMD
KRNH 231556Z 2316/2412 11008KT P6SM BKN020 BKN035
     FM231800 11008KT P6SM SCT020 BKN035
     FM240300 11007KT P6SM SCT006 OVC015=

USA.gov is the U.S. government's official web portal to all federal, state and local government web resources and services.